Time;durP1;ratioP1;P1;durP2;ratioP2;P2;SDS_P1;SDS_P2;PMS_P1;PMS_P2;Temp;Humidity;BMP_temperature;BMP_pressure;BME280_temperature;BME280_humidity;BME280_pressure;Samples;Min_cycle;Max_cycle;Signal;HPM_P1;HPM_P2
2023/03/10 00:01:12;;;;;;;13.77;13.27;;;11.20;99.90;;;;;;4921475;29;20836;-75
2023/03/10 00:03:42;;;;;;;13.97;13.20;;;11.20;99.90;;;;;;4921729;29;20461;-76
2023/03/10 00:06:13;;;;;;;13.60;13.20;;;11.20;99.90;;;;;;4920179;29;20509;-75
2023/03/10 00:08:42;;;;;;;14.47;13.77;;;11.10;99.90;;;;;;4921346;29;20553;-76
2023/03/10 00:11:10;;;;;;;13.60;13.10;;;11.10;1.00;;;;;;4917035;29;20453;-75
2023/03/10 00:13:39;;;;;;;13.93;13.43;;;11.10;1.00;;;;;;4918235;29;20480;-79
2023/03/10 00:16:08;;;;;;;14.07;13.57;;;11.10;1.00;;;;;;4914920;29;20546;-75
2023/03/10 00:18:36;;;;;;;14.23;13.60;;;11.10;1.00;;;;;;4907566;29;20488;-77
2023/03/10 00:21:06;;;;;;;13.80;13.30;;;11.00;99.90;;;;;;4918381;29;20532;-76
2023/03/10 00:23:34;;;;;;;14.20;13.70;;;11.00;99.90;;;;;;4918318;29;21148;-76
2023/03/10 00:26:04;;;;;;;14.50;13.90;;;11.00;99.90;;;;;;4917215;29;20827;-75
2023/03/10 00:28:32;;;;;;;13.90;13.50;;;10.90;99.90;;;;;;4921605;29;21073;-75
2023/03/10 00:31:02;;;;;;;13.90;13.50;;;10.90;99.90;;;;;;4916729;29;20483;-75
2023/03/10 00:33:32;;;;;;;14.20;13.80;;;10.90;99.90;;;;;;4919898;29;20531;-74
2023/03/10 00:36:08;;;;;;;13.63;13.23;;;10.90;1.00;;;;;;4920566;29;21035;-75
2023/03/10 00:38:37;;;;;;;14.00;13.60;;;10.90;1.00;;;;;;4918755;29;20468;-74
2023/03/10 00:41:07;;;;;;;13.60;13.30;;;10.90;1.00;;;;;;4898882;29;20997;-74
2023/03/10 00:43:36;;;;;;;13.80;13.40;;;10.90;1.00;;;;;;4916053;29;21316;-78
2023/03/10 00:46:05;;;;;;;13.90;13.50;;;10.80;1.00;;;;;;4918556;29;20459;-75
2023/03/10 00:48:34;;;;;;;13.70;13.30;;;10.90;1.00;;;;;;4918416;29;20480;-75
2023/03/10 00:51:03;;;;;;;13.63;13.23;;;10.80;1.00;;;;;;4920135;29;20454;-77
2023/03/10 00:53:34;;;;;;;14.10;13.70;;;10.80;1.00;;;;;;4918675;29;20586;-76
2023/03/10 00:56:04;;;;;;;13.80;13.30;;;10.70;1.00;;;;;;4921386;29;20469;-76
2023/03/10 00:58:34;;;;;;;13.70;13.30;;;10.80;1.00;;;;;;4918498;29;20452;-78
2023/03/10 01:01:04;;;;;;;14.07;13.57;;;10.80;75.00;;;;;;4917736;29;20450;-76
2023/03/10 01:03:32;;;;;;;13.80;13.50;;;10.80;99.90;;;;;;4919875;29;20871;-78
2023/03/10 01:06:00;;;;;;;14.13;13.63;;;10.80;99.90;;;;;;4918532;29;20461;-77
2023/03/10 01:08:28;;;;;;;13.57;13.10;;;10.80;99.90;;;;;;4920319;29;21011;-77
2023/03/10 01:10:58;;;;;;;13.87;13.47;;;10.80;99.90;;;;;;4920304;29;20532;-78
2023/03/10 01:13:26;;;;;;;14.20;13.80;;;10.80;99.90;;;;;;4921580;29;20462;-75
2023/03/10 01:15:54;;;;;;;13.97;13.57;;;10.80;69.20;;;;;;4922413;29;20536;-74
2023/03/10 01:18:22;;;;;;;14.20;13.80;;;10.80;99.90;;;;;;4920896;29;20452;-75
2023/03/10 01:20:50;;;;;;;13.77;13.37;;;10.70;99.90;;;;;;4921068;29;20968;-73
2023/03/10 01:23:21;;;;;;;14.07;13.57;;;10.80;28.00;;;;;;4921354;29;20535;-78
2023/03/10 01:25:50;;;;;;;14.03;13.53;;;10.80;99.90;;;;;;4919156;29;20481;-76
2023/03/10 01:28:20;;;;;;;14.63;14.10;;;10.70;7.10;;;;;;4917473;29;20493;-75
2023/03/10 01:30:48;;;;;;;13.90;13.50;;;10.70;1.00;;;;;;4918505;29;20497;-74
2023/03/10 01:33:18;;;;;;;13.50;13.20;;;10.70;1.00;;;;;;4919915;29;20468;-75
2023/03/10 01:35:46;;;;;;;14.20;13.70;;;10.70;1.00;;;;;;4918671;29;20471;-75
2023/03/10 01:38:14;;;;;;;13.93;13.43;;;10.80;1.00;;;;;;4917226;29;20456;-74
2023/03/10 01:40:49;;;;;;;14.10;13.60;;;10.80;1.00;;;;;;4919444;29;21027;-76
2023/03/10 01:43:32;;;;;;;13.30;12.90;;;10.80;1.00;;;;;;4915211;29;20457;-77
2023/03/10 01:46:32;;;;;;;14.37;13.97;;;10.70;1.00;;;;;;4920004;29;20550;-76
2023/03/10 01:49:04;;;;;;;13.43;13.13;;;10.70;1.00;;;;;;4905963;29;20554;-76
2023/03/10 01:51:35;;;;;;;13.77;13.37;;;10.70;24.60;;;;;;4920156;29;20529;-79
2023/03/10 01:54:08;;;;;;;14.00;13.60;;;10.60;1.00;;;;;;4918564;29;21103;-79
2023/03/10 01:56:37;;;;;;;13.90;13.37;;;10.70;99.90;;;;;;4918679;29;20970;-77
2023/03/10 01:59:08;;;;;;;13.50;13.20;;;10.70;99.90;;;;;;4915974;29;20897;-76
2023/03/10 02:01:37;;;;;;;14.67;14.10;;;10.70;99.90;;;;;;4917839;29;20463;-77
2023/03/10 02:04:08;;;;;;;14.77;14.27;;;10.70;99.90;;;;;;4918600;29;21030;-75
2023/03/10 02:06:40;;;;;;;14.90;14.50;;;10.60;99.90;;;;;;4918212;29;20460;-76
2023/03/10 02:09:09;;;;;;;14.20;13.80;;;10.70;99.90;;;;;;4914512;29;20480;-76
2023/03/10 02:11:38;;;;;;;14.93;14.53;;;10.70;1.00;;;;;;4919774;29;20548;-75
2023/03/10 02:14:08;;;;;;;14.50;14.10;;;10.70;1.00;;;;;;4915683;29;20556;-78
2023/03/10 02:16:36;;;;;;;14.60;14.20;;;10.60;1.00;;;;;;4916506;29;20466;-75
2023/03/10 02:19:08;;;;;;;14.80;14.40;;;10.60;1.00;;;;;;4919911;29;21178;-75
2023/03/10 02:21:44;;;;;;;15.03;14.40;;;10.60;1.00;;;;;;4920097;29;20472;-75
2023/03/10 02:24:22;;;;;;;14.80;14.30;;;10.60;1.00;;;;;;4920757;29;20523;-77
2023/03/10 02:26:56;;;;;;;14.60;14.20;;;10.50;35.40;;;;;;4918287;29;20471;-75
2023/03/10 02:29:28;;;;;;;14.03;13.73;;;10.60;99.90;;;;;;4918290;29;20493;-75
2023/03/10 02:31:58;;;;;;;14.33;14.00;;;10.60;99.90;;;;;;4917016;29;20500;-74
2023/03/10 02:34:27;;;;;;;14.50;14.10;;;10.50;1.00;;;;;;4918014;29;20467;-75
2023/03/10 02:36:56;;;;;;;14.87;14.47;;;10.50;99.90;;;;;;4920450;29;20544;-75
2023/03/10 02:39:24;;;;;;;14.40;14.10;;;10.50;99.90;;;;;;4917931;29;20486;-77
2023/03/10 02:41:53;;;;;;;14.80;14.40;;;10.50;99.90;;;;;;4917391;29;20454;-75
2023/03/10 02:44:23;;;;;;;15.20;14.40;;;10.50;1.00;;;;;;4918668;29;20457;-74
2023/03/10 02:46:52;;;;;;;16.47;15.87;;;10.50;99.90;;;;;;4916619;29;20496;-75
2023/03/10 02:49:23;;;;;;;15.10;14.70;;;10.40;99.90;;;;;;4914302;29;20693;-74
2023/03/10 02:51:52;;;;;;;15.30;14.70;;;10.30;99.90;;;;;;4912974;29;20617;-76
2023/03/10 02:54:20;;;;;;;15.20;14.80;;;10.40;99.90;;;;;;4919497;29;20474;-76
2023/03/10 02:56:48;;;;;;;14.70;14.40;;;10.40;22.20;;;;;;4914115;29;20461;-74
2023/03/10 02:59:16;;;;;;;15.20;14.70;;;10.30;99.90;;;;;;4918139;29;20485;-77
2023/03/10 03:01:44;;;;;;;15.37;14.93;;;10.30;1.00;;;;;;4915075;29;20473;-74
2023/03/10 03:04:14;;;;;;;15.57;14.87;;;10.30;74.10;;;;;;4918016;29;20566;-77
2023/03/10 03:06:42;;;;;;;15.27;14.87;;;10.30;99.90;;;;;;4918418;29;20463;-73
2023/03/10 03:09:10;;;;;;;15.60;15.10;;;10.30;99.90;;;;;;4919208;29;21036;-74
2023/03/10 03:11:40;;;;;;;15.70;15.30;;;10.30;99.90;;;;;;4917363;29;20484;-77
2023/03/10 03:14:08;;;;;;;15.47;14.97;;;10.30;99.90;;;;;;4916152;29;20460;-75
2023/03/10 03:16:36;;;;;;;15.23;14.83;;;10.20;99.90;;;;;;4918740;29;20465;-75
2023/03/10 03:19:04;;;;;;;15.37;15.00;;;10.20;1.00;;;;;;4918835;29;20495;-75
2023/03/10 03:21:34;;;;;;;15.60;15.20;;;10.10;1.00;;;;;;4920792;29;20451;-76
2023/03/10 03:24:02;;;;;;;15.60;15.10;;;10.20;6.60;;;;;;4921743;29;20558;-77
2023/03/10 03:26:30;;;;;;;15.40;15.10;;;10.20;1.00;;;;;;4921080;29;20454;-75
2023/03/10 03:28:58;;;;;;;15.50;15.10;;;10.20;1.00;;;;;;4918751;29;20482;-73
2023/03/10 03:31:26;;;;;;;15.60;15.10;;;10.10;5.00;;;;;;4919268;29;20520;-76
2023/03/10 03:33:54;;;;;;;15.50;15.10;;;10.10;1.00;;;;;;4921659;29;20514;-75
2023/03/10 03:36:22;;;;;;;15.60;15.20;;;10.20;1.00;;;;;;4920508;29;20470;-77
2023/03/10 03:38:52;;;;;;;15.83;15.43;;;10.10;1.00;;;;;;4917327;29;21004;-74
2023/03/10 03:41:20;;;;;;;15.27;14.87;;;10.20;99.90;;;;;;4917354;29;20879;-76
2023/03/10 03:43:48;;;;;;;15.70;15.30;;;10.20;99.90;;;;;;4917570;29;20457;-74
2023/03/10 03:46:16;;;;;;;15.50;15.10;;;10.20;99.90;;;;;;4917805;29;20457;-74
2023/03/10 03:48:44;;;;;;;15.50;15.10;;;10.10;99.90;;;;;;4921449;29;20535;-74
2023/03/10 03:51:12;;;;;;;15.00;14.70;;;10.20;99.90;;;;;;4918663;29;20549;-75
2023/03/10 03:53:40;;;;;;;15.10;14.80;;;10.10;99.90;;;;;;4918733;29;20473;-73
2023/03/10 03:56:10;;;;;;;15.40;15.00;;;10.20;99.90;;;;;;4917138;29;20456;-74
2023/03/10 03:58:38;;;;;;;15.17;14.77;;;10.20;99.90;;;;;;4920838;29;20502;-75
2023/03/10 04:01:06;;;;;;;14.80;14.50;;;10.20;99.90;;;;;;4920055;29;20449;-73
2023/03/10 04:03:34;;;;;;;15.17;14.77;;;10.20;99.90;;;;;;4920715;29;21042;-76
2023/03/10 04:06:02;;;;;;;14.90;14.40;;;10.30;93.30;;;;;;4919455;29;20460;-76
2023/03/10 04:08:30;;;;;;;14.70;14.23;;;10.20;99.90;;;;;;4920035;29;21325;-74
2023/03/10 04:10:58;;;;;;;14.43;14.13;;;10.20;99.90;;;;;;4920952;29;20488;-75
2023/03/10 04:13:28;;;;;;;14.60;14.30;;;10.20;99.90;;;;;;4916337;29;20461;-74
2023/03/10 04:15:57;;;;;;;14.70;14.30;;;10.20;1.00;;;;;;4920935;29;20558;-76
2023/03/10 04:18:25;;;;;;;14.70;14.40;;;10.20;1.00;;;;;;4916019;29;20465;-75
2023/03/10 04:20:53;;;;;;;15.00;14.70;;;10.20;1.00;;;;;;4917126;29;20468;-74
2023/03/10 04:23:21;;;;;;;14.60;14.30;;;10.10;50.80;;;;;;4920865;29;20472;-75
2023/03/10 04:25:49;;;;;;;14.63;14.33;;;10.10;99.90;;;;;;4918297;29;20457;-77
2023/03/10 04:28:17;;;;;;;14.93;14.53;;;10.00;24.40;;;;;;4919037;29;20465;-76
2023/03/10 04:30:47;;;;;;;15.63;15.03;;;10.00;99.90;;;;;;4916935;29;20484;-75
2023/03/10 04:33:15;;;;;;;15.43;15.03;;;10.00;1.00;;;;;;4918321;29;20562;-75
2023/03/10 04:35:46;;;;;;;15.40;15.00;;;10.00;99.90;;;;;;4917375;29;20504;-75
2023/03/10 04:38:14;;;;;;;15.30;14.90;;;10.10;99.90;;;;;;4916479;29;20471;-76
2023/03/10 04:40:42;;;;;;;15.70;15.30;;;10.10;1.00;;;;;;4920092;29;21044;-73
2023/03/10 04:43:10;;;;;;;15.30;14.90;;;10.20;1.00;;;;;;4921300;29;20503;-76
2023/03/10 04:45:39;;;;;;;15.40;15.00;;;10.20;1.00;;;;;;4917772;29;20481;-75
2023/03/10 04:48:08;;;;;;;15.13;14.63;;;10.30;99.90;;;;;;4920626;29;20476;-75
2023/03/10 04:50:36;;;;;;;15.20;14.80;;;10.20;99.90;;;;;;4916939;29;20579;-75
2023/03/10 04:53:04;;;;;;;15.07;14.67;;;10.20;99.90;;;;;;4916866;29;20492;-74
2023/03/10 04:55:32;;;;;;;15.30;14.80;;;10.30;99.90;;;;;;4917974;29;20545;-76
2023/03/10 04:58:00;;;;;;;15.23;14.83;;;10.20;1.00;;;;;;4921229;29;20460;-75
2023/03/10 05:00:29;;;;;;;15.43;14.93;;;10.10;1.00;;;;;;4915580;29;20995;-76
2023/03/10 05:02:57;;;;;;;15.40;15.00;;;10.10;1.00;;;;;;4919850;29;20963;-76
2023/03/10 05:05:26;;;;;;;15.80;15.40;;;10.10;1.00;;;;;;4919804;29;20551;-76
2023/03/10 05:07:54;;;;;;;15.60;15.20;;;10.00;99.90;;;;;;4903555;29;21287;-76
2023/03/10 05:10:22;;;;;;;15.93;15.53;;;10.00;1.00;;;;;;4919686;29;20481;-77
2023/03/10 05:12:50;;;;;;;15.60;15.13;;;10.00;1.00;;;;;;4918351;29;21220;-75
2023/03/10 05:15:20;;;;;;;15.10;14.80;;;10.00;99.90;;;;;;4917795;29;20635;-76
2023/03/10 05:17:48;;;;;;;15.17;14.77;;;10.00;16.10;;;;;;4919437;29;21007;-74
2023/03/10 05:20:17;;;;;;;15.63;15.23;;;10.00;20.40;;;;;;4914818;29;20494;-77
2023/03/10 05:22:46;;;;;;;16.03;15.40;;;9.90;99.90;;;;;;4919164;29;20515;-79
2023/03/10 05:25:15;;;;;;;15.70;15.00;;;9.90;1.00;;;;;;4919819;29;20559;-76
2023/03/10 05:27:43;;;;;;;15.63;15.17;;;10.00;1.00;;;;;;4922452;29;20468;-81
2023/03/10 05:30:14;;;;;;;15.50;15.10;;;10.00;1.00;;;;;;4916820;29;22147;-75
2023/03/10 05:32:43;;;;;;;15.47;14.97;;;9.90;1.00;;;;;;4914699;29;20528;-75
2023/03/10 05:35:12;;;;;;;15.73;15.10;;;9.80;1.00;;;;;;4918907;29;20467;-75
2023/03/10 05:37:42;;;;;;;15.77;15.37;;;9.90;99.90;;;;;;4918337;29;20991;-77
2023/03/10 05:40:14;;;;;;;15.60;15.20;;;10.00;99.90;;;;;;4909917;29;20480;-77
2023/03/10 05:42:42;;;;;;;15.83;15.23;;;10.00;1.00;;;;;;4920710;29;20468;-74
2023/03/10 05:45:11;;;;;;;15.83;15.33;;;10.00;99.90;;;;;;4915694;29;20456;-78
2023/03/10 05:47:39;;;;;;;15.87;15.47;;;10.00;96.90;;;;;;4915555;29;20458;-76
2023/03/10 05:50:08;;;;;;;16.80;16.10;;;10.00;99.90;;;;;;4919802;29;20479;-75
2023/03/10 05:52:38;;;;;;;16.50;16.00;;;10.00;99.90;;;;;;4919026;29;20549;-76
2023/03/10 05:55:08;;;;;;;16.23;15.83;;;9.90;96.00;;;;;;4921368;29;20989;-78
2023/03/10 05:57:38;;;;;;;15.70;15.20;;;10.00;1.00;;;;;;4915653;29;20976;-77
2023/03/10 06:00:09;;;;;;;16.53;16.03;;;10.00;1.00;;;;;;4920097;29;20475;-77
2023/03/10 06:02:37;;;;;;;16.10;15.50;;;9.90;99.90;;;;;;4916693;29;20479;-78
2023/03/10 06:05:08;;;;;;;15.90;15.50;;;9.90;99.90;;;;;;4915581;29;20461;-76
2023/03/10 06:07:39;;;;;;;16.10;15.70;;;9.90;99.90;;;;;;4920179;29;20452;-79
2023/03/10 06:10:09;;;;;;;16.10;15.60;;;9.90;99.90;;;;;;4917466;29;20494;-77
2023/03/10 06:12:38;;;;;;;16.27;15.77;;;9.80;99.90;;;;;;4915611;29;21026;-77
2023/03/10 06:15:08;;;;;;;16.17;15.53;;;9.80;1.00;;;;;;4916797;29;20863;-78
2023/03/10 06:17:36;;;;;;;16.27;15.70;;;9.80;1.00;;;;;;4919083;29;20466;-75
2023/03/10 06:20:05;;;;;;;16.00;15.50;;;9.70;1.00;;;;;;4898692;29;20582;-75
2023/03/10 06:22:33;;;;;;;16.17;15.53;;;9.70;1.00;;;;;;4915292;29;21016;-76
2023/03/10 06:25:01;;;;;;;15.97;15.47;;;9.70;1.00;;;;;;4916209;29;20552;-76
2023/03/10 06:27:30;;;;;;;15.80;15.40;;;9.60;1.00;;;;;;4915793;29;20993;-77
2023/03/10 06:30:00;;;;;;;16.10;15.70;;;9.50;1.00;;;;;;4917694;29;20958;-77
2023/03/10 06:32:28;;;;;;;16.27;15.70;;;9.50;1.00;;;;;;4914952;29;20550;-77
2023/03/10 06:34:59;;;;;;;16.20;15.80;;;9.50;1.00;;;;;;4919079;29;20905;-77
2023/03/10 06:37:27;;;;;;;16.10;15.70;;;9.50;1.00;;;;;;4916733;29;20496;-75
2023/03/10 06:39:55;;;;;;;15.97;15.57;;;9.50;1.00;;;;;;4916977;29;20568;-74
2023/03/10 06:42:23;;;;;;;15.90;15.50;;;9.50;1.00;;;;;;4920978;29;20460;-76
2023/03/10 06:44:54;;;;;;;15.97;15.47;;;9.40;1.00;;;;;;4918071;29;20503;-77
2023/03/10 06:47:24;;;;;;;16.20;15.60;;;9.40;1.00;;;;;;4918661;29;20471;-78
2023/03/10 06:49:53;;;;;;;16.10;15.70;;;9.50;1.00;;;;;;4921362;29;20476;-76
2023/03/10 06:52:21;;;;;;;16.37;15.80;;;9.40;1.00;;;;;;4915305;29;20471;-77
2023/03/10 06:54:50;;;;;;;16.97;16.40;;;9.60;1.00;;;;;;4920593;29;20504;-76
2023/03/10 06:57:18;;;;;;;16.97;16.37;;;9.60;1.00;;;;;;4924606;29;20456;-75
2023/03/10 06:59:48;;;;;;;16.80;16.30;;;9.70;1.00;;;;;;4924049;29;20490;-78
2023/03/10 07:02:18;;;;;;;16.90;16.40;;;9.70;1.00;;;;;;4922714;29;20456;-76
2023/03/10 07:04:48;;;;;;;17.60;17.10;;;9.70;1.00;;;;;;4923732;29;20463;-77
2023/03/10 07:07:16;;;;;;;17.30;16.80;;;9.80;1.00;;;;;;4919335;29;20490;-76
2023/03/10 07:09:45;;;;;;;16.90;16.30;;;9.90;1.00;;;;;;4921507;29;20481;-77
2023/03/10 07:12:13;;;;;;;17.40;16.70;;;9.90;1.00;;;;;;4921999;29;20496;-78
2023/03/10 07:14:41;;;;;;;17.60;16.90;;;9.90;99.90;;;;;;4923430;29;21036;-77
2023/03/10 07:17:09;;;;;;;17.20;16.70;;;9.80;1.00;;;;;;4921528;29;20463;-77
2023/03/10 07:19:38;;;;;;;17.50;17.00;;;9.80;99.90;;;;;;4920839;29;20496;-76
2023/03/10 07:22:07;;;;;;;17.07;16.60;;;9.80;1.00;;;;;;4916337;29;20521;-76
2023/03/10 07:24:38;;;;;;;17.30;16.60;;;9.90;99.90;;;;;;4918514;29;20460;-73
2023/03/10 07:27:06;;;;;;;17.93;17.13;;;10.00;1.00;;;;;;4918921;29;20550;-75
2023/03/10 07:29:35;;;;;;;18.03;16.90;;;10.00;1.00;;;;;;4904771;29;20917;-80
2023/03/10 07:32:03;;;;;;;17.40;16.90;;;10.00;1.00;;;;;;4920348;29;20518;-77
2023/03/10 07:34:31;;;;;;;17.13;16.63;;;10.00;99.90;;;;;;4918468;29;20518;-77
2023/03/10 07:36:59;;;;;;;17.17;16.67;;;9.90;1.00;;;;;;4921478;29;20445;-73
2023/03/10 07:39:28;;;;;;;16.90;16.40;;;9.90;1.00;;;;;;4921572;29;20491;-76
2023/03/10 07:41:56;;;;;;;17.30;16.70;;;10.10;1.00;;;;;;4920294;29;20520;-78
2023/03/10 07:44:25;;;;;;;17.57;16.97;;;10.10;1.00;;;;;;4919358;29;20452;-77
2023/03/10 07:46:53;;;;;;;17.10;16.50;;;10.20;99.90;;;;;;4920138;29;20448;-76
2023/03/10 07:49:21;;;;;;;17.47;16.83;;;10.20;99.90;;;;;;4919724;29;20867;-77
2023/03/10 07:51:49;;;;;;;16.90;16.40;;;10.20;99.90;;;;;;4914295;29;20457;-75
2023/03/10 07:54:17;;;;;;;17.37;16.77;;;10.20;1.00;;;;;;4923888;29;20456;-74
2023/03/10 07:56:47;;;;;;;17.40;16.80;;;10.20;1.00;;;;;;4921176;29;20545;-77
2023/03/10 07:59:18;;;;;;;16.93;16.33;;;10.10;1.00;;;;;;4918945;29;20527;-76
2023/03/10 08:01:46;;;;;;;17.27;16.67;;;9.90;99.90;;;;;;4919111;29;21077;-76
2023/03/10 08:04:15;;;;;;;17.30;16.70;;;9.90;1.00;;;;;;4920518;29;20483;-76
2023/03/10 08:06:45;;;;;;;16.90;16.30;;;9.90;1.00;;;;;;4916989;29;20966;-75
2023/03/10 08:09:13;;;;;;;17.23;16.57;;;9.90;99.90;;;;;;4906584;29;20488;-77
2023/03/10 08:11:41;;;;;;;16.80;16.20;;;9.80;1.00;;;;;;4918705;29;20537;-78
2023/03/10 08:14:10;;;;;;;16.80;16.30;;;9.80;1.00;;;;;;4918433;29;20546;-77
2023/03/10 08:16:39;;;;;;;17.10;16.30;;;9.80;99.90;;;;;;4920896;29;20464;-75
2023/03/10 08:19:07;;;;;;;17.30;16.73;;;9.80;99.90;;;;;;4916004;29;20559;-77
2023/03/10 08:21:35;;;;;;;16.80;16.30;;;9.80;1.00;;;;;;4921057;29;20459;-76
2023/03/10 08:24:04;;;;;;;17.20;16.70;;;9.80;99.90;;;;;;4920630;29;20462;-77
2023/03/10 08:26:32;;;;;;;17.40;16.80;;;9.80;1.00;;;;;;4917791;29;20458;-76
2023/03/10 08:29:00;;;;;;;16.90;16.40;;;9.70;1.00;;;;;;4913785;29;20536;-76
2023/03/10 08:31:29;;;;;;;17.07;16.67;;;9.70;1.00;;;;;;4917247;29;20541;-74
2023/03/10 08:33:58;;;;;;;16.70;16.30;;;9.80;17.00;;;;;;4915136;29;20499;-78
2023/03/10 08:36:29;;;;;;;17.00;16.50;;;9.80;1.00;;;;;;4917601;29;20539;-76
2023/03/10 08:38:59;;;;;;;16.70;16.30;;;10.00;99.90;;;;;;4916655;29;20827;-75
2023/03/10 08:41:29;;;;;;;17.30;16.90;;;10.70;99.90;;;;;;4916900;29;22678;-79
2023/03/10 08:43:59;;;;;;;17.70;17.20;;;11.40;99.90;;;;;;4919334;29;20467;-75
2023/03/10 08:46:30;;;;;;;18.00;17.40;;;11.60;99.90;;;;;;4918271;29;20464;-77
2023/03/10 08:48:58;;;;;;;17.77;17.33;;;11.50;99.90;;;;;;4917513;29;20489;-74
2023/03/10 08:51:28;;;;;;;17.90;17.30;;;11.40;1.00;;;;;;4919148;29;20460;-76
2023/03/10 08:53:57;;;;;;;17.40;17.00;;;11.30;99.90;;;;;;4918980;29;20496;-76
2023/03/10 08:56:25;;;;;;;17.43;16.90;;;11.40;1.00;;;;;;4922700;29;21049;-79
2023/03/10 08:58:57;;;;;;;18.03;17.30;;;12.50;1.00;;;;;;4924618;29;20480;-76
2023/03/10 09:01:27;;;;;;;17.53;16.90;;;13.00;99.90;;;;;;4923514;29;20465;-76
2023/03/10 09:03:57;;;;;;;18.00;17.40;;;13.10;1.00;;;;;;4922689;29;20861;-76
2023/03/10 09:06:26;;;;;;;17.50;16.90;;;13.20;99.90;;;;;;4922819;29;20442;-77
2023/03/10 09:08:54;;;;;;;18.50;17.77;;;13.20;1.00;;;;;;4920788;29;20487;-76
2023/03/10 09:11:25;;;;;;;18.60;18.00;;;13.40;99.90;;;;;;4921024;29;21018;-76
2023/03/10 09:13:53;;;;;;;18.30;17.70;;;14.80;99.90;;;;;;4905785;29;20482;-77
2023/03/10 09:16:21;;;;;;;18.50;17.80;;;14.50;1.00;;;;;;4921113;29;20455;-78
2023/03/10 09:18:49;;;;;;;17.90;17.30;;;13.80;1.00;;;;;;4921696;29;20481;-75
2023/03/10 09:21:19;;;;;;;17.47;16.87;;;13.50;1.00;;;;;;4920753;29;20454;-77
2023/03/10 09:23:51;;;;;;;17.60;17.00;;;12.90;1.00;;;;;;4922971;29;20487;-77
2023/03/10 09:26:21;;;;;;;17.93;17.33;;;12.60;1.00;;;;;;4919888;29;20857;-77
2023/03/10 09:28:51;;;;;;;17.40;16.90;;;12.50;99.90;;;;;;4919877;29;20470;-78
2023/03/10 09:31:25;;;;;;;17.53;17.03;;;12.90;99.90;;;;;;4906809;29;20589;-76
2023/03/10 09:33:53;;;;;;;17.50;16.90;;;12.70;99.90;;;;;;4920377;29;20477;-76
2023/03/10 09:36:22;;;;;;;17.30;16.80;;;12.50;99.90;;;;;;4920029;29;21087;-75
2023/03/10 09:38:51;;;;;;;17.30;16.80;;;12.10;99.90;;;;;;4919787;29;20476;-77
2023/03/10 09:41:48;;;;;;;16.40;16.00;;;11.80;99.90;;;;;;4922695;29;20475;-73
2023/03/10 09:44:25;;;;;;;17.60;17.00;;;11.70;1.00;;;;;;4917797;29;20548;-75
2023/03/10 09:47:14;;;;;;;18.20;17.57;;;11.70;1.00;;;;;;4921492;29;20448;-77
2023/03/10 09:49:48;;;;;;;17.60;17.00;;;11.60;1.00;;;;;;4919981;29;20477;-75
2023/03/10 09:52:28;;;;;;;17.00;16.40;;;11.60;99.90;;;;;;4920236;29;20577;-76
2023/03/10 09:55:04;;;;;;;18.20;17.37;;;11.60;99.90;;;;;;4922931;29;20473;-77
2023/03/10 09:57:33;;;;;;;18.10;17.40;;;11.50;99.90;;;;;;4921022;29;20454;-75
2023/03/10 10:00:07;;;;;;;17.60;17.10;;;11.40;99.90;;;;;;4919798;29;20469;-76
2023/03/10 10:02:40;;;;;;;17.70;17.00;;;11.30;65.20;;;;;;4919293;29;20456;-76
2023/03/10 10:05:17;;;;;;;17.60;17.10;;;11.30;1.00;;;;;;4917209;29;20461;-75
2023/03/10 10:07:50;;;;;;;17.70;17.00;;;11.30;1.00;;;;;;4919259;29;20918;-76
2023/03/10 10:10:23;;;;;;;17.77;16.97;;;11.20;1.00;;;;;;4921931;29;20490;-77
2023/03/10 10:12:53;;;;;;;17.33;16.90;;;11.10;99.90;;;;;;4920436;29;20987;-76
2023/03/10 10:15:23;;;;;;;17.40;16.90;;;11.20;1.00;;;;;;4919973;29;20545;-78
2023/03/10 10:18:03;;;;;;;17.70;17.20;;;11.10;1.00;;;;;;4919846;29;20541;-75
2023/03/10 10:20:49;;;;;;;18.03;17.37;;;11.20;99.90;;;;;;4917381;29;20484;-75
2023/03/10 10:23:28;;;;;;;17.40;16.90;;;11.20;99.90;;;;;;4920619;29;20521;-77
2023/03/10 10:26:01;;;;;;;17.50;17.00;;;11.20;99.90;;;;;;4919877;29;20454;-74
2023/03/10 10:28:40;;;;;;;17.57;17.00;;;11.20;1.00;;;;;;4914882;29;21092;-75
2023/03/10 10:31:15;;;;;;;17.60;17.03;;;11.10;1.00;;;;;;4920779;29;20457;-76
2023/03/10 10:33:58;;;;;;;17.70;16.93;;;11.10;1.00;;;;;;4917979;29;20488;-74
2023/03/10 10:36:29;;;;;;;17.10;16.60;;;11.10;1.00;;;;;;4915336;29;20496;-78
2023/03/10 10:39:00;;;;;;;17.03;16.43;;;11.10;1.00;;;;;;4913476;29;20483;-77
2023/03/10 10:41:30;;;;;;;16.90;16.40;;;11.10;26.20;;;;;;4911753;29;20453;-74
2023/03/10 10:44:05;;;;;;;17.10;16.50;;;11.10;87.80;;;;;;4913810;29;20449;-76
2023/03/10 10:46:34;;;;;;;17.03;16.53;;;11.20;1.00;;;;;;4912799;29;20969;-78
2023/03/10 10:49:11;;;;;;;17.17;16.57;;;11.20;1.00;;;;;;4910079;29;20848;-77
2023/03/10 10:51:39;;;;;;;16.90;16.50;;;11.20;99.90;;;;;;4914621;29;20469;-74
2023/03/10 10:54:27;;;;;;;17.10;16.50;;;11.20;1.00;;;;;;4915941;29;20492;-76
2023/03/10 10:56:57;;;;;;;17.30;16.80;;;11.20;99.90;;;;;;4920122;29;20454;-76
2023/03/10 10:59:29;;;;;;;16.97;16.37;;;11.60;99.90;;;;;;4921235;29;20591;-73
2023/03/10 11:01:59;;;;;;;17.60;17.00;;;11.80;99.90;;;;;;4920857;29;21028;-75
2023/03/10 11:04:29;;;;;;;16.90;16.40;;;11.90;99.90;;;;;;4918430;29;20592;-79
2023/03/10 11:07:11;;;;;;;17.93;17.00;;;11.70;99.90;;;;;;4923184;29;20461;-76
2023/03/10 11:09:41;;;;;;;16.90;16.30;;;11.40;1.00;;;;;;4918986;29;20474;-77
2023/03/10 11:12:19;;;;;;;17.23;16.63;;;11.60;1.00;;;;;;4919147;29;20456;-78
2023/03/10 11:15:07;;;;;;;17.00;16.50;;;11.50;1.00;;;;;;4918951;29;20488;-78
2023/03/10 11:17:41;;;;;;;16.80;16.30;;;11.50;99.90;;;;;;4920124;29;21070;-73
2023/03/10 11:20:23;;;;;;;16.80;16.30;;;11.30;32.80;;;;;;4917834;29;20535;-78
2023/03/10 11:22:58;;;;;;;17.20;16.60;;;11.30;99.90;;;;;;4911444;29;20469;-76
2023/03/10 11:25:35;;;;;;;16.90;16.30;;;11.30;99.90;;;;;;4919676;29;20457;-76
2023/03/10 11:28:28;;;;;;;18.60;17.80;;;11.20;99.90;;;;;;4917274;29;20453;-77
2023/03/10 11:31:04;;;;;;;17.10;16.60;;;11.30;99.90;;;;;;4915689;29;20528;-76
2023/03/10 11:33:39;;;;;;;17.30;16.90;;;11.30;99.90;;;;;;4913887;29;20460;-75
2023/03/10 11:36:19;;;;;;;17.63;17.13;;;11.20;99.90;;;;;;4915846;29;20504;-76
2023/03/10 11:38:50;;;;;;;17.33;16.60;;;11.20;99.90;;;;;;4911609;29;21179;-75
2023/03/10 11:41:23;;;;;;;16.93;16.43;;;11.10;43.50;;;;;;4920241;29;20462;-74
2023/03/10 11:43:57;;;;;;;17.90;17.10;;;11.10;1.00;;;;;;4920066;29;20555;-74
2023/03/10 11:46:32;;;;;;;17.30;16.80;;;11.10;1.00;;;;;;4918022;29;20466;-76
2023/03/10 11:49:06;;;;;;;16.80;16.30;;;11.10;99.90;;;;;;4918353;29;21272;-74
2023/03/10 11:51:39;;;;;;;17.17;16.67;;;11.10;1.00;;;;;;4905941;29;20476;-75
2023/03/10 11:54:14;;;;;;;17.50;16.90;;;11.10;1.00;;;;;;4920305;29;21040;-76
2023/03/10 11:56:44;;;;;;;17.43;16.70;;;11.20;1.00;;;;;;4922739;29;20468;-79
2023/03/10 11:59:16;;;;;;;17.90;16.80;;;11.20;1.00;;;;;;4919376;29;20482;-77
2023/03/10 12:01:48;;;;;;;16.80;16.30;;;11.30;99.90;;;;;;4921527;29;20954;-75
2023/03/10 12:04:21;;;;;;;16.93;16.40;;;11.40;99.90;;;;;;4916057;29;20989;-76
2023/03/10 12:06:55;;;;;;;17.00;16.30;;;11.60;99.90;;;;;;4920816;29;20459;-75
2023/03/10 12:09:33;;;;;;;16.70;16.30;;;11.70;99.90;;;;;;4918711;29;20488;-75
2023/03/10 12:12:04;;;;;;;16.80;16.40;;;11.60;1.00;;;;;;4917989;29;20542;-76
2023/03/10 12:14:34;;;;;;;16.70;16.23;;;11.70;99.90;;;;;;4919265;29;20485;-74
2023/03/10 12:17:04;;;;;;;16.60;16.10;;;11.80;1.00;;;;;;4921079;29;20464;-78
2023/03/10 12:19:32;;;;;;;16.83;16.33;;;11.80;1.00;;;;;;4917258;29;20470;-74
2023/03/10 12:22:23;;;;;;;16.70;16.10;;;11.60;1.00;;;;;;4904380;29;21180;-75
2023/03/10 12:24:52;;;;;;;16.33;15.90;;;11.40;1.00;;;;;;4917271;29;20449;-76
2023/03/10 12:27:22;;;;;;;16.53;16.03;;;11.50;47.10;;;;;;4918199;29;20553;-77
2023/03/10 12:29:50;;;;;;;16.20;15.70;;;11.40;1.00;;;;;;4918817;29;21019;-75
2023/03/10 12:32:41;;;;;;;16.20;15.80;;;11.30;1.00;;;;;;4917373;29;21014;-76
2023/03/10 12:35:24;;;;;;;16.33;15.80;;;11.30;1.00;;;;;;4919984;29;21015;-74
2023/03/10 12:38:30;;;;;;;16.27;15.87;;;11.30;1.00;;;;;;4915399;29;20484;-78
2023/03/10 12:40:59;;;;;;;16.23;15.83;;;11.30;99.90;;;;;;4916991;29;20566;-76
2023/03/10 12:43:55;;;;;;;16.20;15.80;;;11.10;99.90;;;;;;4920250;29;20461;-75
2023/03/10 12:46:43;;;;;;;17.07;16.53;;;11.10;99.90;;;;;;4917609;29;20458;-75
2023/03/10 12:49:25;;;;;;;16.40;16.00;;;11.10;99.90;;;;;;4917217;29;20582;-76
2023/03/10 12:51:59;;;;;;;16.57;16.07;;;11.00;1.00;;;;;;4888672;29;21327;-77